Startpagina
METAR-TAF:

METAR-TAF

Vliegvelden :

Luxemburg, Luxemburg

Aéroport de Luxembourg

breedte: 49-37N, lengte: 006-13E, hoogte: 376 m

Actueel weer

Dit bericht is 35 minuten geleden gemaakt, om 14:50 UTC
Wind 6 kt uit het noordwesten, variërend tussen het westen en het noorden
Temperatuur 19°C
Vochtigheid 52%
Druk 1021 hPa
Zicht 10 km of meer
Weinig wolken op 4000 ft

METAR: ELLX 221450Z 31006KT 280V350 9999 FEW040 19/09 Q1021 NOSIG

Tijdstip: 17:25 (15:25 UTC)

Verwachting

Dit bericht is 4 uur en het 25 minuten geleden gemaakt, om 11:00 UTC
Verwachting geldig van 22 om 12 UTC tot 23 om 18 UTC
Wind 6 kt uit het westen
Zicht 10 km of meer
Weinig wolken op 3500 ft
Kans 30% :
Tijdelijke
van 22 om 22 UTC tot 23 om 07 UTC
Zicht: 3500 m
nevel
Wijzigt naar
van 23 om 07 UTC tot 23 om 10 UTC
Wind 10 kt uit het oosten

TAF: ELLX 221100Z 2212/2318 27006KT 9999 FEW035 PROB30 TEMPO 2222/2307 3500 BR BECMG 2307/2310 09010KT

Waarnemingen en weersverwachtingen van meer dan 4000 vliegvelden (METAR en TAF).

De beschikbare stations zijn de gele en rode punten op de kaart.

Ga met uw muis naar het station om de naam te zien.

Klik dan om waarnemingen en weersverwachtingen te zien.

kaart wijzigen: klik op de groene knoppen met een zwart kruis om in te zoomen, op de groene knop met een streepje om uit te zoomen of op de groene pijlen voor aangrenzende kaarten.


METAR-TAF: